Latest Weather Observations for Red Rocks Point

IDW60801

Issued at 4:04 am WST Tuesday 6 December 2016 (issued every 30 minutes, with the page automatically refreshed every 10 minutes)

About weather observations | Map of weather stations | Latest weather observations for WA | Other Formats
Station Details ID: 011053 Name: RED ROCKS POINT Lat: -32.20 Lon: 127.53 Height: 3.1 m
Data from the previous 72 hours. | See also: Recent months at Red Rocks Point
Date/Time
WST
Temp
°C
App
Temp
°C
Dew
Point
°C
Rel
Hum
%
Delta-T
°C
Wind Press
QNH
hPa
Press
MSL
hPa
Rain since
9am
mm
Dir  Spd
km/h
Gust
km/h
Spd
kts
Gust
kts
06/04:00am 17.7 15.4 14.0 79 2.1 E 19 24 10 13 1014.8 1014.8 1.2
06/03:30am 17.6 15.0 13.9 79 2.1 ESE 20 24 11 13 1014.7 1014.7 1.2
06/03:00am 17.7 15.1 13.8 78 2.2 ESE 20 24 11 13 1014.7 1014.7 1.2
06/02:30am 17.7 14.8 14.0 79 2.1 ESE 22 26 12 14 1014.6 1014.6 1.2
06/02:00am 17.8 14.6 14.3 80 2.0 ESE 24 28 13 15 1014.7 1014.7 1.2
06/01:30am 17.7 15.2 14.2 80 2.0 ESE 20 26 11 14 1014.8 1014.8 1.2
06/01:00am 17.9 15.0 14.0 78 2.2 ESE 22 28 12 15 1014.8 1014.8 1.2
06/12:30am 17.9 15.9 13.8 77 2.3 ESE 17 22 9 12 1015.2 1015.2 1.2
06/12:00am 17.9 15.6 14.0 78 2.2 ESE 19 22 10 12 1015.5 1015.5 1.2
 
Date/Time
WST
Temp
°C
App
Temp
°C
Dew
Point
°C
Rel
Hum
%
Delta-T
°C
Wind Press
QNH
hPa
Press
MSL
hPa
Rain since
9am
mm
Dir  Spd
km/h
Gust
km/h
Spd
kts
Gust
kts
05/11:30pm 16.1 15.2 12.7 80 1.9 NNE 9 15 5 8 1015.4 1015.4 1.2
05/11:00pm 17.9 14.9 13.6 76 2.4 E 22 26 12 14 1015.3 1015.3 1.2
05/10:30pm 18.0 15.6 13.9 77 2.3 E 19 22 10 12 1015.6 1015.6 1.2
05/10:00pm 18.0 14.4 14.1 78 2.2 E 26 30 14 16 1015.0 1015.0 1.2
05/09:30pm 17.9 13.1 13.0 73 2.7 E 30 35 16 19 1014.6 1014.6 1.2
05/09:00pm 17.7 12.5 12.8 73 2.7 E 32 37 17 20 1014.9 1014.9 1.2
05/08:30pm 17.3 12.7 13.4 78 2.2 ESE 30 37 16 20 1014.4 1014.4 1.0
05/08:00pm 18.2 13.0 13.5 74 2.7 E 33 41 18 22 1014.5 1014.5 0.0
05/07:30pm 17.9 12.8 13.6 76 2.4 E 33 39 18 21 1014.1 1014.1 0.0
05/07:00pm 17.9 12.3 13.4 75 2.5 ESE 35 39 19 21 1013.8 1013.8 0.0
05/06:30pm 17.5 11.7 13.8 79 2.1 ESE 37 43 20 23 1012.9 1012.9 0.0
05/06:00pm 17.9 11.9 13.2 74 2.6 SE 37 44 20 24 1013.3 1013.3 0.0
05/05:30pm 18.3 11.5 13.2 72 2.9 ESE 41 48 22 26 1012.7 1012.7 0.0
05/05:00pm 18.9 12.9 14.4 75 2.6 ESE 39 44 21 24 1012.6 1012.6 0.0
05/04:30pm 18.7 12.8 13.6 72 2.9 ESE 37 46 20 25 1012.3 1012.3 0.0
05/04:00pm 18.9 12.5 13.3 70 3.2 SE 39 44 21 24 1011.9 1011.9 0.0
05/03:30pm 19.8 13.8 13.3 66 3.7 ESE 37 43 20 23 1011.9 1011.9 0.0
05/03:00pm 19.7 15.1 14.5 72 3.0 ESE 32 37 17 20 1012.4 1012.4 0.0
05/02:30pm 19.6 14.9 13.3 67 3.6 ESE 30 35 16 19 1012.7 1012.7 0.0
05/02:00pm 20.0 14.8 13.5 66 3.7 ESE 33 37 18 20 1012.5 1012.5 0.0
05/01:30pm 20.4 15.4 13.4 64 4.0 ESE 32 37 17 20 1012.5 1012.5 0.0
05/01:00pm 20.6 15.8 14.0 66 3.8 E 32 37 17 20 1012.6 1012.6 0.0
05/12:30pm 19.9 15.3 13.4 66 3.7 E 30 33 16 18 1013.1 1013.1 0.0
05/12:00pm 20.8 16.2 13.5 63 4.2 E 30 33 16 18 1013.0 1013.0 0.0
05/11:30am 20.4 15.6 12.9 62 4.3 E 30 35 16 19 1013.5 1013.5 0.0
05/11:00am 20.8 16.1 13.3 62 4.3 ESE 30 35 16 19 1013.5 1013.5 0.0
05/10:30am 20.8 16.5 13.3 62 4.3 ESE 28 35 15 19 1013.6 1013.6 0.0
05/10:00am 20.7 15.8 12.7 60 4.5 ESE 30 33 16 18 1014.0 1014.0 0.0
05/09:30am 20.5 16.1 13.0 62 4.3 ESE 28 32 15 17 1014.5 1014.5 0.0
05/09:00am 19.9 16.2 12.7 63 4.1 E 24 30 13 16 1014.6 1014.6 0.0
05/08:30am 19.7 15.9 12.5 63 4.0 E 24 28 13 15 1014.8 1014.8 0.0
05/08:00am 19.4 15.8 11.9 62 4.1 E 22 30 12 16 1015.1 1015.1 0.0
05/07:30am 19.1 15.5 11.7 62 4.1 E 22 28 12 15 1015.3 1015.3 0.0
05/07:00am 18.9 15.2 11.5 62 4.1 E 22 26 12 14 1015.2 1015.2 0.0
05/06:30am 18.7 15.3 11.3 62 4.0 E 20 28 11 15 1015.0 1015.0 0.0
05/06:00am 18.2 14.9 11.5 65 3.7 E 20 26 11 14 1015.0 1015.0 0.0
05/05:30am 16.1 14.4 10.0 67 3.2 NNE 9 13 5 7 1014.8 1014.8 0.0
05/05:00am 14.1 12.3 9.3 73 2.4 NNE 9 13 5 7 1014.7 1014.7 0.0
05/04:30am 12.9 10.9 8.6 75 2.1 N 9 9 5 5 1014.5 1014.5 0.0
05/04:00am 14.4 12.0 8.6 68 2.9 N 11 15 6 8 1014.5 1014.5 0.0
05/03:30am 16.8 13.4 10.6 67 3.3 E 19 26 10 14 1014.2 1014.2 0.0
05/03:00am 17.0 13.1 10.8 67 3.3 E 22 28 12 15 1013.8 1013.8 0.0
05/02:30am 17.0 13.0 10.6 66 3.4 ESE 22 28 12 15 1013.9 1013.9 0.0
05/02:00am 17.1 12.8 10.7 66 3.4 ESE 24 30 13 16 1013.8 1013.8 0.0
05/01:30am 17.1 12.8 10.9 67 3.3 ESE 24 32 13 17 1014.2 1014.2 0.0
05/01:00am 16.9 13.3 10.7 67 3.3 ESE 20 26 11 14 1015.4 1015.4 0.0
05/12:30am 17.0 12.8 11.1 68 3.2 ESE 24 30 13 16 1014.9 1014.9 0.0
05/12:00am 16.7 12.3 10.5 67 3.3 ESE 24 32 13 17 1014.8 1014.8 0.0
 
Date/Time
WST
Temp
°C
App
Temp
°C
Dew
Point
°C
Rel
Hum
%
Delta-T
°C
Wind Press
QNH
hPa
Press
MSL
hPa
Rain since
9am
mm
Dir  Spd
km/h
Gust
km/h
Spd
kts
Gust
kts
04/11:30pm 17.0 12.0 11.1 68 3.2 SE 28 35 15 19 1014.7 1014.7 0.0
04/11:00pm 17.0 11.7 11.3 69 3.1 SE 30 37 16 20 1014.4 1014.4 0.0
04/10:30pm 17.0 12.0 11.1 68 3.2 SE 28 35 15 19 1014.8 1014.8 0.0
04/10:00pm 17.0 12.0 11.1 68 3.2 SSE 28 35 15 19 1015.0 1015.0 0.0
04/09:30pm 17.2 12.3 11.2 68 3.2 SSE 28 35 15 19 1015.1 1015.1 0.0
04/09:00pm 17.1 12.1 10.9 67 3.3 SSE 28 32 15 17 1015.1 1015.1 0.0
04/08:30pm 16.9 11.9 11.0 68 3.2 S 28 33 15 18 1015.1 1015.1 0.0
04/08:00pm 17.1 12.2 11.2 68 3.2 S 28 33 15 18 1014.8 1014.8 0.0
04/07:30pm 17.0 12.8 11.1 68 3.2 S 24 32 13 17 1014.7 1014.7 0.0
04/07:00pm 17.1 12.2 11.4 69 3.1 S 28 33 15 18 1014.3 1014.3 0.0
04/06:30pm 17.4 11.9 11.7 69 3.1 S 32 39 17 21 1013.7 1013.7 0.0
04/06:00pm 17.7 12.6 11.9 69 3.2 S 30 35 16 19 1013.4 1013.4 0.0
04/05:30pm 18.1 13.1 11.0 63 3.8 SSW 28 35 15 19 1013.4 1013.4 0.0
04/05:00pm 18.9 15.3 11.9 64 3.9 SSW 22 32 12 17 1012.9 1012.9 0.0
04/04:30pm 19.6 14.8 11.6 60 4.4 SSW 28 33 15 18 1012.6 1012.6 0.0
04/04:00pm 19.6 15.0 10.9 57 4.7 SSW 26 33 14 18 1012.5 1012.5 0.0
04/03:30pm 20.7 16.4 10.8 53 5.4 SSW 24 35 13 19 1012.7 1012.7 0.0
04/03:00pm 20.7 15.6 10.5 52 5.5 SSW 28 35 15 19 1012.5 1012.5 0.0
04/02:30pm 21.3 16.6 10.5 50 5.9 SSW 26 33 14 18 1012.5 1012.5 0.0
04/02:00pm 21.7 16.9 10.2 48 6.3 SW 26 35 14 19 1012.4 1012.4 0.0
04/01:30pm 21.6 16.1 10.7 50 6.0 SW 30 43 16 23 1012.2 1012.2 0.0
04/01:00pm 21.8 16.2 10.3 48 6.3 SW 30 39 16 21 1012.0 1012.0 0.0
04/12:30pm 22.0 17.2 11.7 52 5.8 SW 28 43 15 23 1011.7 1011.7 0.0
04/12:00pm 22.3 17.3 12.3 53 5.7 SW 30 43 16 23 1011.2 1011.2 0.0
04/11:30am 22.0 16.8 13.4 58 5.0 SW 33 48 18 26 1010.6 1010.6 0.0
04/11:00am 21.5 15.8 12.9 58 4.9 SW 35 48 19 26 1010.5 1010.5 0.0
04/10:30am 21.5 16.8 14.4 64 4.2 SW 32 52 17 28 1010.3 1010.3 0.0
04/10:04am 20.2 15.6 14.6 70 3.3 SW 32 50 17 27 1010.3 1010.3 0.0
04/10:00am 20.3 15.8 14.9 71 3.2 SW 32 43 17 23 1010.3 1010.3 0.0
04/09:30am 20.9 16.1 14.1 65 3.9 SW 32 44 17 24 1010.1 1010.1 0.0
04/09:00am 21.4 17.6 14.6 65 4.0 SW 28 43 15 23 1009.8 1009.8 -
04/08:30am 21.9 18.1 15.7 68 3.7 SW 30 50 16 27 1009.5 1009.5 -
04/08:24am 21.1 17.3 14.7 67 3.8 SW 28 50 15 27 1009.4 1009.4 -
04/08:00am 20.6 16.5 14.9 70 3.4 SW 30 46 16 25 1009.0 1009.0 -
04/07:30am 20.2 15.6 15.2 73 2.9 SW 33 52 18 28 1008.6 1008.6 -
04/07:00am 20.5 16.2 15.3 72 3.1 SW 32 50 17 27 1008.3 1008.3 -
04/06:30am 20.4 16.4 15.2 72 3.1 SW 30 48 16 26 1007.7 1007.7 -
04/06:00am 20.0 16.4 15.2 74 2.8 SW 28 46 15 25 1007.0 1007.0 -
04/05:31am 19.4 14.8 14.6 74 2.8 WSW 32 52 17 28 1005.9 1005.9 -
04/05:30am 19.5 15.0 15.0 75 2.6 WSW 32 44 17 24 1005.9 1005.9 -
04/05:00am 18.9 15.4 15.4 80 2.1 WSW 28 44 15 24 1005.1 1005.1 -
04/04:44am 18.7 14.8 15.6 82 1.8 WSW 30 48 16 26 1004.6 1004.6 -
04/04:30am 18.7 15.2 15.6 82 1.8 WSW 28 41 15 22 1004.3 1004.3 -
04/04:00am 19.1 14.9 15.8 81 2.0 WSW 32 50 17 27 1003.5 1003.5 -
04/03:34am 19.5 15.7 15.8 79 2.2 WSW 30 48 16 26 1003.1 1003.1 -
04/03:30am 19.5 16.0 15.6 78 2.3 WSW 28 44 15 24 1002.9 1002.9 -
04/03:00am 21.1 19.4 16.3 74 2.9 W 20 33 11 18 1002.3 1002.3 0.0
04/02:30am 22.6 21.4 16.2 67 3.9 WSW 17 26 9 14 1001.9 1001.9 -
04/02:00am 23.2 23.1 16.0 64 4.4 WNW 11 17 6 9 1001.3 1001.3 -
04/01:30am 23.6 23.0 15.6 61 4.8 WNW 13 19 7 10 1000.9 1000.9 -
04/01:00am 23.8 23.2 15.6 60 5.0 WNW 13 19 7 10 1000.8 1000.8 -
04/12:30am 22.8 22.7 16.1 66 4.1 NW 11 19 6 10 1000.6 1000.6 -
04/12:00am 21.6 22.4 18.2 81 2.1 W 11 19 6 10 1000.7 1000.7 -
 
Date/Time
WST
Temp
°C
App
Temp
°C
Dew
Point
°C
Rel
Hum
%
Delta-T
°C
Wind Press
QNH
hPa
Press
MSL
hPa
Rain since
9am
mm
Dir  Spd
km/h
Gust
km/h
Spd
kts
Gust
kts
03/11:30pm 21.5 22.3 18.1 81 2.1 W 11 20 6 11 1000.8 1000.8 -
03/11:00pm 22.0 22.4 18.2 79 2.4 N 13 19 7 10 999.1 999.1 -
03/10:30pm 22.1 21.4 18.3 79 2.4 NNE 19 28 10 15 999.3 999.3 -
03/10:00pm 21.9 20.6 18.1 79 2.4 NNE 22 32 12 17 1000.1 1000.1 -
03/09:30pm 21.8 19.4 18.2 80 2.2 NE 28 43 15 23 1000.5 1000.5 -
03/09:00pm 21.8 18.6 18.6 82 2.0 NE 33 44 18 24 1001.4 1001.4 -
03/08:30pm 22.0 18.9 18.8 82 2.0 NE 33 46 18 25 1001.9 1001.9 -
03/08:08pm 22.0 18.2 19.0 83 1.9 NE 37 56 20 30 1002.3 1002.3 -
03/07:30pm 21.4 20.0 19.7 90 1.1 ENE 26 35 14 19 1001.3 1001.3 2.4
03/07:00pm 21.4 17.7 19.1 87 1.5 ENE 37 44 20 24 1001.1 1001.1 2.4
03/06:30pm 21.3 16.9 19.4 89 1.2 ENE 41 50 22 27 1000.9 1000.9 2.4
03/06:11pm 21.4 19.6 19.5 89 1.2 E 28 41 15 22 1001.4 1001.4 2.4
03/06:00pm 21.5 22.6 19.6 89 1.2 ENE 13 19 7 10 1003.4 1003.4 2.2
03/05:30pm 22.1 22.9 19.1 83 1.9 NW 13 20 7 11 1004.8 1004.8 0.0
03/05:07pm 25.9 22.4 15.6 53 6.3 NW 28 48 15 26 1004.1 1004.1 0.0
03/05:00pm 23.9 21.3 13.7 53 6.0 N 20 35 11 19 1004.5 1004.5 0.0
03/04:58pm 23.0 20.4 13.8 56 5.4 NNE 20 33 11 18 1004.1 1004.1 0.0
03/04:53pm 21.4 16.9 14.8 66 3.9 NE 32 50 17 27 1001.6 1001.6 0.0
03/04:30pm 21.1 15.0 16.1 73 3.0 ENE 43 56 23 30 999.8 999.8 0.0
03/04:00pm 21.1 14.6 15.2 69 3.5 ENE 43 50 23 27 999.6 999.6 0.0
03/03:30pm 21.3 14.7 14.9 67 3.8 ENE 43 54 23 29 1000.0 1000.0 0.0
03/03:28pm 21.2 14.3 14.6 66 3.9 ENE 44 54 24 29 1000.0 1000.0 0.0
03/03:00pm 21.5 15.3 16.5 73 3.0 ENE 44 54 24 29 1002.0 1002.0 0.0
03/02:30pm 21.5 16.1 17.1 76 2.7 E 41 48 22 26 1002.4 1002.4 0.0
03/02:00pm 20.9 16.5 16.7 77 2.6 E 35 43 19 23 1003.4 1003.4 0.0
03/01:30pm 21.8 18.2 17.2 75 2.8 E 32 39 17 21 1004.3 1004.3 0.0
03/01:00pm 22.0 17.4 17.2 74 3.0 ENE 37 46 20 25 1004.8 1004.8 0.0
03/12:30pm 20.7 16.0 16.9 79 2.3 ENE 37 44 20 24 1005.2 1005.2 0.0
03/12:00pm 20.9 16.2 16.9 78 2.4 ENE 37 44 20 24 1005.3 1005.3 0.0
03/11:30am 21.3 16.2 16.9 76 2.7 ENE 39 50 21 27 1005.7 1005.7 0.0
03/11:00am 21.7 17.2 17.3 76 2.7 ENE 37 46 20 25 1006.9 1006.9 0.0
03/10:30am 20.9 16.1 16.5 76 2.7 ENE 37 46 20 25 1007.0 1007.0 0.0
03/10:00am 21.6 17.3 17.0 75 2.8 ENE 35 41 19 22 1007.5 1007.5 0.0
03/09:30am 21.1 16.7 16.7 76 2.7 ENE 35 43 19 23 1008.1 1008.1 0.0
03/09:00am 21.2 16.4 16.6 75 2.8 E 37 44 20 24 1008.5 1008.5 0.0
03/08:30am 21.4 17.1 16.8 75 2.8 E 35 39 19 21 1008.8 1008.8 0.0
03/08:00am 23.5 18.9 13.4 53 5.9 ENE 30 37 16 20 1009.1 1009.1 0.0
03/07:30am 22.0 17.6 14.1 61 4.6 ENE 30 37 16 20 1009.3 1009.3 0.0
03/07:00am 20.5 16.2 13.2 63 4.2 NE 28 39 15 21 1009.6 1009.6 0.0
03/06:30am 19.3 14.9 14.1 72 3.0 NE 30 39 16 21 1009.9 1009.9 0.0
03/06:00am 17.9 13.9 14.0 78 2.2 ENE 28 39 15 21 1010.2 1010.2 0.0
03/05:30am 16.7 13.7 13.6 82 1.7 NE 22 33 12 18 1010.4 1010.4 0.0
03/05:00am 16.8 13.8 13.7 82 1.8 NE 22 32 12 17 1010.3 1010.3 0.0
03/04:30am 17.8 11.7 15.2 85 1.5 ENE 41 48 22 26 1010.1 1010.1 0.0

Other Formats:

Comma delimited format used in spreadsheet applications
http://www.bom.gov.au/fwo/IDW60801/IDW60801.94644.axf

JavaScript Object Notation format (JSON) in row-major order
http://www.bom.gov.au/fwo/IDW60801/IDW60801.94644.json